Nassauborg — PHDU — position and weather

sailwx.info

Track history (hours):
 
Tides and Currents Weather Stations Pressure Air Temp Water Temp Dewpoint Dewpoint Depression Visibility Wind Speed Wind Dir Waves Ship Positions

Nassauborg

Ship's website: http://www.wagenborg.com/index.cfm?pid=37&itemid=158&contentitemid=236

Last reported at 2018-Jul-23 08:45 UTC. Time now 2018-Jul-23 11:52 UTC.
Position N 59°56' E 029°42'.

Length 143 m; beam 22 m.

Type: Cargo ship. MMSI: 246430000.

Date/timePositionNaut miles runAvg speedWind from/ knotsBaromVisibWave heightAir tempDewpointWater temp
2018-Jul-23 08:45N 59°56' E 029°42'0 0.0
2018-Jul-23 01:58N 59°56' E 029°42'0 0.0
2018-Jul-22 23:34N 59°56' E 029°42'0 0.0
2018-Jul-22 23:17N 59°56' E 029°42'0 0.0
2018-Jul-22 22:54N 59°56' E 029°42'0 0.0
2018-Jul-22 22:12N 59°56' E 029°42'0 0.0
2018-Jul-22 21:52N 59°56' E 029°42'0 0.0
2018-Jul-22 21:29N 59°56' E 029°42'0 0.0
2018-Jul-22 20:45N 59°56' E 029°42'0 0.0
2018-Jul-22 20:29N 59°56' E 029°42'0 0.0
2018-Jul-22 19:47N 59°56' E 029°42'0 0.0
2018-Jul-22 17:13N 59°56' E 029°42'0 0.0
2018-Jul-22 16:58N 59°56' E 029°42'0 0.0
2018-Jul-22 16:13N 59°56' E 029°42'0 0.0
2018-Jul-22 15:48N 59°56' E 029°42'0 0.0
2018-Jul-22 14:32N 59°56' E 029°42'0 0.0
2018-Jul-22 14:15N 59°56' E 029°42'0 0.0
2018-Jul-22 13:50N 59°56' E 029°42'0 0.0
2018-Jul-22 12:42N 59°56' E 029°42'0 0.0
2018-Jul-22 12:25N 59°56' E 029°42'0 0.0
2018-Jul-22 11:10N 59°56' E 029°42'0 0.0
2018-Jul-22 11:00N 59°56' E 029°42'0 0.0
2018-Jul-22 10:28N 59°56' E 029°42'0 0.0
2018-Jul-22 09:54N 59°56' E 029°42'0 0.0
2018-Jul-22 09:30N 59°56' E 029°42'0 0.0
2018-Jul-22 08:44N 59°56' E 029°42'0 0.0
2018-Jul-22 08:30N 59°56' E 029°42'0 0.0
2018-Jul-22 07:48N 59°56' E 029°42'0 0.0
2018-Jul-22 07:29N 59°56' E 029°42'0 0.0
2018-Jul-22 06:03N 59°56' E 029°42'0 0.0
2018-Jul-22 05:46N 59°56' E 029°42'0 0.0
2018-Jul-22 05:30N 59°56' E 029°42'8 5.2
2018-Jul-22 03:58N 60°01' E 029°30'3 2.2
2018-Jul-22 02:27N 60°02' E 029°24'0 0.1
2018-Jul-22 00:30N 60°02' E 029°24'6 0.4
2018-Jul-21 10:51N 60°02' E 029°12'512.6
2018-Jul-21 10:27N 60°02' E 029°02'512.3
2018-Jul-21 10:00N 60°02' E 028°51'712.9
2018-Jul-21 09:30N 60°02' E 028°38'713.2
2018-Jul-21 08:58N 60°04' E 028°24'612.5
2018-Jul-21 08:31N 60°07' E 028°15'713.3
2018-Jul-21 08:00N 60°09' E 028°01'713.8
2018-Jul-21 07:31N 60°10' E 027°48'713.9
2018-Jul-21 07:00N 60°07' E 027°36'815.5
2018-Jul-21 06:30N 60°03' E 027°22'715.3
2018-Jul-21 06:00N 59°60' E 027°09'915.0
2018-Jul-21 05:26N 59°59' E 026°52'613.8
2018-Jul-21 05:01N 59°59' E 026°40'815.0
2018-Jul-21 04:30N 59°58' E 026°25'3114.8
2018-Jul-21 02:23N 59°50' E 025°24'514.3
2018-Jul-21 02:00N 59°49' E 025°14'814.7
2018-Jul-21 01:30N 59°47' E 024°60'714.8
2018-Jul-21 01:00N 59°45' E 024°46'1015.2
2018-Jul-21 00:22N 59°43' E 024°27'25414.9
2018-Jul-20 07:15N 56°50' E 018°32'414.9
2018-Jul-20 07:00N 56°47' E 018°27'715.0
2018-Jul-20 06:30N 56°42' E 018°17'713.8
2018-Jul-20 06:00N 56°38' E 018°07'713.8
2018-Jul-20 05:30N 56°34' E 017°57'713.7
2018-Jul-20 05:00N 56°30' E 017°47'713.9
2018-Jul-20 04:31N 56°26' E 017°37'714.0
2018-Jul-20 04:01N 56°22' E 017°26'4 8.0
2018-Jul-20 03:30N 56°19' E 017°23'0 0.3
2018-Jul-20 02:59N 56°19' E 017°23'0 0.4
2018-Jul-20 02:28N 56°19' E 017°23'0 0.4
2018-Jul-20 02:00N 56°19' E 017°23'0 0.3
2018-Jul-20 01:30N 56°19' E 017°22'0 0.4
2018-Jul-20 00:55N 56°19' E 017°23'4 9.2
2018-Jul-20 00:28N 56°16' E 017°17'713.9
2018-Jul-19 23:56N 56°12' E 017°07'613.8
2018-Jul-19 23:30N 56°08' E 016°58'714.0
2018-Jul-19 23:01N 56°04' E 016°49'713.8
2018-Jul-19 22:30N 56°00' E 016°38'714.0
2018-Jul-19 22:00N 55°57' E 016°27'714.0
2018-Jul-19 21:30N 55°53' E 016°16'713.9
2018-Jul-19 21:00N 55°50' E 016°06'713.9
2018-Jul-19 20:31N 55°47' E 015°55'714.0
2018-Jul-19 20:01N 55°43' E 015°44'714.1
2018-Jul-19 19:31N 55°40' E 015°33'714.0
2018-Jul-19 19:01N 55°36' E 015°22'714.0
2018-Jul-19 18:30N 55°33' E 015°11'714.1
2018-Jul-19 18:01N 55°30' E 015°00'714.4
2018-Jul-19 17:30N 55°26' E 014°49'714.1
2018-Jul-19 17:01N 55°22' E 014°39'714.0
2018-Jul-19 16:31N 55°17' E 014°30'713.8
2018-Jul-19 16:00N 55°12' E 014°21'713.4
2018-Jul-19 15:28N 55°11' E 014°09'613.6
2018-Jul-19 15:00N 55°11' E 013°58'2313.9
2018-Jul-19 13:21N 55°14' E 013°18'814.0
2018-Jul-19 12:47N 55°14' E 013°04'413.8
2018-Jul-19 12:28N 55°15' E 012°56'713.6
2018-Jul-19 11:58N 55°17' E 012°45'5 9.9
2018-Jul-19 11:30N 55°20' E 012°39'712.9
2018-Jul-19 10:58N 55°27' E 012°41'612.8
2018-Jul-19 10:30N 55°33' E 012°42'611.3
2018-Jul-19 09:59N 55°38' E 012°42'613.4
2018-Jul-19 09:30N 55°45' E 012°41'612.4
2018-Jul-19 09:01N 55°51' E 012°42'713.3
2018-Jul-19 08:30N 55°58' E 012°40'714.1
2018-Jul-19 08:00N 56°04' E 012°37'913.9
2018-Jul-19 07:21N 56°12' E 012°28'813.7
2018-Jul-19 06:48N 56°19' E 012°24'413.8
2018-Jul-19 06:30N 56°23' E 012°22'714.4
2018-Jul-19 06:00N 56°30' E 012°17'714.4
2018-Jul-19 05:30N 56°37' E 012°13'714.1
2018-Jul-19 05:00N 56°43' E 012°09'714.0
2018-Jul-19 04:30N 56°50' E 012°05'713.8
2018-Jul-19 04:00N 56°57' E 012°01'713.7
2018-Jul-19 03:30N 57°03' E 011°57'713.7
2018-Jul-19 03:00N 57°10' E 011°53'713.6
2018-Jul-19 02:30N 57°16' E 011°49'713.9
2018-Jul-19 02:00N 57°23' E 011°45'714.0
2018-Jul-19 01:30N 57°29' E 011°40'612.7
2018-Jul-19 01:00N 57°36' E 011°41'0 0.4
2018-Jul-19 00:28N 57°36' E 011°41'0 0.1
2018-Jul-18 23:58N 57°36' E 011°41'0 0.0
2018-Jul-18 23:28N 57°36' E 011°41'0 0.0
2018-Jul-18 23:00N 57°36' E 011°41'0 0.1
2018-Jul-18 22:27N 57°36' E 011°41'0 0.2
2018-Jul-18 22:00N 57°36' E 011°41'2 3.2
2018-Jul-18 21:31N 57°35' E 011°38'714.0
2018-Jul-18 21:01N 57°36' E 011°25'713.6
2018-Jul-18 20:30N 57°37' E 011°13'714.2
2018-Jul-18 20:00N 57°38' E 010°60'714.2
2018-Jul-18 19:30N 57°39' E 010°46'4 8.0
2018-Jul-18 19:00N 57°41' E 010°40'2 3.6
2018-Jul-18 18:30N 57°43' E 010°39'3 6.2
2018-Jul-18 17:58N 57°45' E 010°44'510.8
2018-Jul-18 17:30N 57°47' E 010°35'814.4
2018-Jul-18 16:56N 57°46' E 010°20'1215.2
2018-Jul-18 16:10N 57°42' E 009°59'315.1
2018-Jul-18 15:56N 57°42' E 009°52'2314.6
2018-Jul-18 14:23N 57°36' E 009°12'1414.6
2018-Jul-18 13:26N 57°32' E 008°46'34413.4
2018-Jul-17 11:40N 56°15' W 001°27'213.2
2018-Jul-17 11:30N 56°14' W 001°31'713.1
2018-Jul-17 11:00N 56°13' W 001°43'712.7
2018-Jul-17 10:26N 56°12' W 001°55'1412.7
2018-Jul-17 09:21N 56°09' W 002°20'513.1
2018-Jul-17 08:57N 56°08' W 002°29'614.1
2018-Jul-17 08:30N 56°07' W 002°40'713.9
2018-Jul-17 08:00N 56°05' W 002°52'713.2
2018-Jul-17 07:30N 56°03' W 003°03'611.9
2018-Jul-17 07:00N 56°02' W 003°14'  
Track history (hours):
 
Tides and Currents Weather Stations Pressure Air Temp Water Temp Dewpoint Dewpoint Depression Visibility Wind Speed Wind Dir Waves Ship Positions

Nassauborg

Ship's website: http://www.wagenborg.com/index.cfm?pid=37&itemid=158&contentitemid=236

Last reported at 2018-Jul-23 08:45 UTC. Time now 2018-Jul-23 11:52 UTC.
Position N 59°56' E 029°42'.

Length 143 m; beam 22 m.

Type: Cargo ship. MMSI: 246430000.

Date/timePositionNaut miles runAvg speedWind from/ knotsBaromVisibWave heightAir tempDewpointWater temp
2018-Jul-23 08:45N 59°56' E 029°42'0 0.0
2018-Jul-23 01:58N 59°56' E 029°42'0 0.0
2018-Jul-22 23:34N 59°56' E 029°42'0 0.0
2018-Jul-22 23:17N 59°56' E 029°42'0 0.0
2018-Jul-22 22:54N 59°56' E 029°42'0 0.0
2018-Jul-22 22:12N 59°56' E 029°42'0 0.0
2018-Jul-22 21:52N 59°56' E 029°42'0 0.0
2018-Jul-22 21:29N 59°56' E 029°42'0 0.0
2018-Jul-22 20:45N 59°56' E 029°42'0 0.0
2018-Jul-22 20:29N 59°56' E 029°42'0 0.0
2018-Jul-22 19:47N 59°56' E 029°42'0 0.0
2018-Jul-22 17:13N 59°56' E 029°42'0 0.0
2018-Jul-22 16:58N 59°56' E 029°42'0 0.0
2018-Jul-22 16:13N 59°56' E 029°42'0 0.0
2018-Jul-22 15:48N 59°56' E 029°42'0 0.0
2018-Jul-22 14:32N 59°56' E 029°42'0 0.0
2018-Jul-22 14:15N 59°56' E 029°42'0 0.0
2018-Jul-22 13:50N 59°56' E 029°42'0 0.0
2018-Jul-22 12:42N 59°56' E 029°42'0 0.0
2018-Jul-22 12:25N 59°56' E 029°42'0 0.0
2018-Jul-22 11:10N 59°56' E 029°42'0 0.0
2018-Jul-22 11:00N 59°56' E 029°42'0 0.0
2018-Jul-22 10:28N 59°56' E 029°42'0 0.0
2018-Jul-22 09:54N 59°56' E 029°42'0 0.0
2018-Jul-22 09:30N 59°56' E 029°42'0 0.0
2018-Jul-22 08:44N 59°56' E 029°42'0 0.0
2018-Jul-22 08:30N 59°56' E 029°42'0 0.0
2018-Jul-22 07:48N 59°56' E 029°42'0 0.0
2018-Jul-22 07:29N 59°56' E 029°42'0 0.0
2018-Jul-22 06:03N 59°56' E 029°42'0 0.0
2018-Jul-22 05:46N 59°56' E 029°42'0 0.0
2018-Jul-22 05:30N 59°56' E 029°42'8 5.2
2018-Jul-22 03:58N 60°01' E 029°30'3 2.2
2018-Jul-22 02:27N 60°02' E 029°24'0 0.1
2018-Jul-22 00:30N 60°02' E 029°24'6 0.4
2018-Jul-21 10:51N 60°02' E 029°12'512.6
2018-Jul-21 10:27N 60°02' E 029°02'512.3
2018-Jul-21 10:00N 60°02' E 028°51'712.9
2018-Jul-21 09:30N 60°02' E 028°38'713.2
2018-Jul-21 08:58N 60°04' E 028°24'612.5
2018-Jul-21 08:31N 60°07' E 028°15'713.3
2018-Jul-21 08:00N 60°09' E 028°01'713.8
2018-Jul-21 07:31N 60°10' E 027°48'713.9
2018-Jul-21 07:00N 60°07' E 027°36'815.5
2018-Jul-21 06:30N 60°03' E 027°22'715.3
2018-Jul-21 06:00N 59°60' E 027°09'915.0
2018-Jul-21 05:26N 59°59' E 026°52'613.8
2018-Jul-21 05:01N 59°59' E 026°40'815.0
2018-Jul-21 04:30N 59°58' E 026°25'3114.8
2018-Jul-21 02:23N 59°50' E 025°24'514.3
2018-Jul-21 02:00N 59°49' E 025°14'814.7
2018-Jul-21 01:30N 59°47' E 024°60'714.8
2018-Jul-21 01:00N 59°45' E 024°46'1015.2
2018-Jul-21 00:22N 59°43' E 024°27'25414.9
2018-Jul-20 07:15N 56°50' E 018°32'414.9
2018-Jul-20 07:00N 56°47' E 018°27'715.0
2018-Jul-20 06:30N 56°42' E 018°17'713.8
2018-Jul-20 06:00N 56°38' E 018°07'713.8
2018-Jul-20 05:30N 56°34' E 017°57'713.7
2018-Jul-20 05:00N 56°30' E 017°47'713.9
2018-Jul-20 04:31N 56°26' E 017°37'714.0
2018-Jul-20 04:01N 56°22' E 017°26'4 8.0
2018-Jul-20 03:30N 56°19' E 017°23'0 0.3
2018-Jul-20 02:59N 56°19' E 017°23'0 0.4
2018-Jul-20 02:28N 56°19' E 017°23'0 0.4
2018-Jul-20 02:00N 56°19' E 017°23'0 0.3
2018-Jul-20 01:30N 56°19' E 017°22'0 0.4
2018-Jul-20 00:55N 56°19' E 017°23'4 9.2
2018-Jul-20 00:28N 56°16' E 017°17'713.9
2018-Jul-19 23:56N 56°12' E 017°07'613.8
2018-Jul-19 23:30N 56°08' E 016°58'714.0
2018-Jul-19 23:01N 56°04' E 016°49'713.8
2018-Jul-19 22:30N 56°00' E 016°38'714.0
2018-Jul-19 22:00N 55°57' E 016°27'714.0
2018-Jul-19 21:30N 55°53' E 016°16'713.9
2018-Jul-19 21:00N 55°50' E 016°06'713.9
2018-Jul-19 20:31N 55°47' E 015°55'714.0
2018-Jul-19 20:01N 55°43' E 015°44'714.1
2018-Jul-19 19:31N 55°40' E 015°33'714.0
2018-Jul-19 19:01N 55°36' E 015°22'714.0
2018-Jul-19 18:30N 55°33' E 015°11'714.1
2018-Jul-19 18:01N 55°30' E 015°00'714.4
2018-Jul-19 17:30N 55°26' E 014°49'714.1
2018-Jul-19 17:01N 55°22' E 014°39'714.0
2018-Jul-19 16:31N 55°17' E 014°30'713.8
2018-Jul-19 16:00N 55°12' E 014°21'713.4
2018-Jul-19 15:28N 55°11' E 014°09'613.6
2018-Jul-19 15:00N 55°11' E 013°58'2313.9
2018-Jul-19 13:21N 55°14' E 013°18'814.0
2018-Jul-19 12:47N 55°14' E 013°04'413.8
2018-Jul-19 12:28N 55°15' E 012°56'713.6
2018-Jul-19 11:58N 55°17' E 012°45'5 9.9
2018-Jul-19 11:30N 55°20' E 012°39'712.9
2018-Jul-19 10:58N 55°27' E 012°41'612.8
2018-Jul-19 10:30N 55°33' E 012°42'611.3
2018-Jul-19 09:59N 55°38' E 012°42'613.4
2018-Jul-19 09:30N 55°45' E 012°41'612.4
2018-Jul-19 09:01N 55°51' E 012°42'713.3
2018-Jul-19 08:30N 55°58' E 012°40'714.1
2018-Jul-19 08:00N 56°04' E 012°37'913.9
2018-Jul-19 07:21N 56°12' E 012°28'813.7
2018-Jul-19 06:48N 56°19' E 012°24'413.8
2018-Jul-19 06:30N 56°23' E 012°22'714.4
2018-Jul-19 06:00N 56°30' E 012°17'714.4
2018-Jul-19 05:30N 56°37' E 012°13'714.1
2018-Jul-19 05:00N 56°43' E 012°09'714.0
2018-Jul-19 04:30N 56°50' E 012°05'713.8
2018-Jul-19 04:00N 56°57' E 012°01'713.7
2018-Jul-19 03:30N 57°03' E 011°57'713.7
2018-Jul-19 03:00N 57°10' E 011°53'713.6
2018-Jul-19 02:30N 57°16' E 011°49'713.9
2018-Jul-19 02:00N 57°23' E 011°45'714.0
2018-Jul-19 01:30N 57°29' E 011°40'612.7
2018-Jul-19 01:00N 57°36' E 011°41'0 0.4
2018-Jul-19 00:28N 57°36' E 011°41'0 0.1
2018-Jul-18 23:58N 57°36' E 011°41'0 0.0
2018-Jul-18 23:28N 57°36' E 011°41'0 0.0
2018-Jul-18 23:00N 57°36' E 011°41'0 0.1
2018-Jul-18 22:27N 57°36' E 011°41'0 0.2
2018-Jul-18 22:00N 57°36' E 011°41'2 3.2
2018-Jul-18 21:31N 57°35' E 011°38'714.0
2018-Jul-18 21:01N 57°36' E 011°25'713.6
2018-Jul-18 20:30N 57°37' E 011°13'714.2
2018-Jul-18 20:00N 57°38' E 010°60'714.2
2018-Jul-18 19:30N 57°39' E 010°46'4 8.0
2018-Jul-18 19:00N 57°41' E 010°40'2 3.6
2018-Jul-18 18:30N 57°43' E 010°39'3 6.2
2018-Jul-18 17:58N 57°45' E 010°44'510.8
2018-Jul-18 17:30N 57°47' E 010°35'814.4
2018-Jul-18 16:56N 57°46' E 010°20'1215.2
2018-Jul-18 16:10N 57°42' E 009°59'315.1
2018-Jul-18 15:56N 57°42' E 009°52'2314.6
2018-Jul-18 14:23N 57°36' E 009°12'1414.6
2018-Jul-18 13:26N 57°32' E 008°46'34413.4
2018-Jul-17 11:40N 56°15' W 001°27'213.2
2018-Jul-17 11:30N 56°14' W 001°31'713.1
2018-Jul-17 11:00N 56°13' W 001°43'712.7
2018-Jul-17 10:26N 56°12' W 001°55'1412.7
2018-Jul-17 09:21N 56°09' W 002°20'513.1
2018-Jul-17 08:57N 56°08' W 002°29'614.1
2018-Jul-17 08:30N 56°07' W 002°40'713.9
2018-Jul-17 08:00N 56°05' W 002°52'713.2
2018-Jul-17 07:30N 56°03' W 003°03'611.9
2018-Jul-17 07:00N 56°02' W 003°14'  

Dump ship's entire track history